Time;durP1;ratioP1;P1;durP2;ratioP2;P2;SDS_P1;SDS_P2;PMS_P1;PMS_P2;Temp;Humidity;BMP_temperature;BMP_pressure;BME280_temperature;BME280_humidity;BME280_pressure;Samples;Min_cycle;Max_cycle;Signal;HPM_P1;HPM_P2
2024/01/22 00:02:28;;;;;;;121.73;53.13;;;-5.20;99.90;-3.90;98105.00;;;;5083055;28;20428;-70
2024/01/22 00:05:17;;;;;;;39.00;28.87;;;-5.10;99.90;-5.40;98084.00;;;;5079795;28;20433;-69
2024/01/22 00:08:07;;;;;;;19.73;17.67;;;-5.30;99.90;-5.30;98078.00;;;;5082944;28;20431;-69
2024/01/22 00:10:56;;;;;;;22.67;18.03;;;-5.60;99.90;-5.40;98088.00;;;;5084473;28;20429;-69
2024/01/22 00:13:46;;;;;;;22.73;18.10;;;-5.80;99.90;-6.10;98084.00;;;;5086553;28;20421;-69
2024/01/22 00:16:39;;;;;;;20.73;17.33;;;-5.90;99.90;-5.10;98088.00;;;;5083004;28;20433;-71
2024/01/22 00:19:28;;;;;;;34.10;25.27;;;-5.90;99.90;-4.30;98085.00;;;;5081271;28;20459;-70
2024/01/22 00:22:17;;;;;;;33.00;23.63;;;-5.80;99.90;-5.00;98071.00;;;;5080132;28;20429;-70
2024/01/22 00:25:07;;;;;;;28.00;21.90;;;-5.80;99.90;-5.60;98063.00;;;;5086765;28;20432;-69
2024/01/22 00:27:55;;;;;;;31.50;23.50;;;-5.90;99.90;-4.60;98066.00;;;;5081516;28;20418;-69
2024/01/22 00:30:46;;;;;;;24.33;20.40;;;-5.90;99.90;-4.60;98065.00;;;;5086620;28;20923;-71
2024/01/22 00:33:35;;;;;;;22.57;19.43;;;-5.70;99.90;-4.90;98062.00;;;;5080898;28;20430;-70
2024/01/22 00:36:23;;;;;;;24.43;20.40;;;-5.70;99.90;-5.20;98070.00;;;;5083476;28;20448;-70
2024/01/22 00:39:12;;;;;;;22.87;19.70;;;-5.80;99.90;-5.10;98065.00;;;;5085926;28;20990;-70
2024/01/22 00:42:01;;;;;;;26.20;21.07;;;-5.90;99.90;-5.60;98062.00;;;;5090209;28;20470;-70
2024/01/22 00:44:51;;;;;;;25.13;20.40;;;-6.00;99.90;-5.20;98070.00;;;;5087272;28;20440;-70
2024/01/22 00:47:41;;;;;;;29.20;23.17;;;-5.50;99.90;-5.10;98061.00;;;;5089662;28;20424;-70
2024/01/22 00:50:30;;;;;;;33.30;26.30;;;-5.90;99.90;-4.90;98054.00;;;;5085214;28;20438;-70
2024/01/22 00:53:19;;;;;;;33.83;26.23;;;-5.80;99.90;-4.70;98057.00;;;;5083110;28;20418;-69
2024/01/22 00:56:08;;;;;;;37.77;29.20;;;-5.60;99.90;-4.10;98064.00;;;;5089500;28;20429;-71
2024/01/22 00:58:57;;;;;;;55.17;35.80;;;-5.40;99.90;-5.30;98051.00;;;;5088794;28;20503;-70
2024/01/22 01:01:46;;;;;;;49.40;32.73;;;-5.40;99.90;-5.70;98059.00;;;;5090153;28;20432;-70
2024/01/22 01:04:36;;;;;;;67.10;41.13;;;-5.90;99.90;-5.90;98048.00;;;;5090090;28;20950;-70
2024/01/22 01:07:25;;;;;;;61.30;37.30;;;-6.00;99.90;-5.80;98047.00;;;;5088873;28;20413;-68
2024/01/22 01:10:14;;;;;;;51.73;33.23;;;-6.10;99.90;-5.70;98033.00;;;;5085621;28;20444;-69
2024/01/22 01:13:03;;;;;;;63.30;37.40;;;-6.10;99.90;-5.10;98046.00;;;;5088908;28;20809;-69
2024/01/22 01:15:52;;;;;;;73.00;42.00;;;-6.00;99.90;-5.00;98037.00;;;;5088355;28;20433;-69
2024/01/22 01:18:41;;;;;;;72.73;40.70;;;-5.80;99.90;-4.40;98033.00;;;;5087084;28;20238;-69
2024/01/22 01:21:31;;;;;;;73.97;39.30;;;-5.70;99.90;-4.50;98033.00;;;;5085269;28;20434;-69
2024/01/22 01:24:20;;;;;;;79.10;42.63;;;-5.50;99.90;-4.20;98037.00;;;;5082951;28;20433;-70
2024/01/22 01:27:09;;;;;;;62.83;37.93;;;-5.50;99.90;-4.30;98028.00;;;;5088682;28;20428;-71
2024/01/22 01:29:58;;;;;;;137.02;61.15;;;-5.50;99.90;-5.00;98013.00;;;;5087368;28;20441;-70
2024/01/22 01:32:47;;;;;;;64.87;40.43;;;-5.70;99.90;-5.10;98018.00;;;;5089257;28;20250;-70
2024/01/22 01:35:36;;;;;;;59.27;34.87;;;-5.80;99.90;-5.60;98000.00;;;;5084433;28;21019;-70
2024/01/22 01:38:26;;;;;;;83.50;42.95;;;-5.90;99.90;-4.60;98015.00;;;;5081392;28;20460;-70
2024/01/22 01:41:15;;;;;;;77.88;37.40;;;-5.90;99.90;-4.70;98000.00;;;;5089472;28;20214;-71
2024/01/22 01:44:04;;;;;;;99.10;45.17;;;-5.80;99.90;-3.80;98006.00;;;;5087547;28;20207;-70
2024/01/22 01:46:53;;;;;;;142.40;61.15;;;-5.60;99.90;-3.90;98004.00;;;;5087567;28;20922;-71
2024/01/22 01:49:42;;;;;;;91.10;42.17;;;-5.40;99.90;-5.10;97994.00;;;;5084536;28;20211;-70
2024/01/22 01:52:31;;;;;;;107.70;48.88;;;-5.60;99.90;-5.70;97992.00;;;;5085272;28;20954;-70
2024/01/22 01:55:23;;;;;;;192.95;60.88;;;-5.80;99.90;-5.60;97997.00;;;;5082646;28;20211;-71
2024/01/22 01:58:11;;;;;;;95.07;44.72;;;-6.00;99.90;-5.60;97988.00;;;;5086615;28;20715;-69
2024/01/22 02:01:02;;;;;;;121.88;53.55;;;-6.10;99.90;-5.90;97978.00;;;;5087957;28;20211;-69
2024/01/22 02:03:51;;;;;;;71.13;43.27;;;-6.20;99.90;-5.50;97985.00;;;;5085480;28;20206;-69
2024/01/22 02:06:41;;;;;;;58.78;35.70;;;-6.20;99.90;-5.20;97982.00;;;;5087824;28;20426;-70
2024/01/22 02:09:47;;;;;;;64.77;38.37;;;-6.20;99.90;-5.30;97977.00;;;;5085980;28;20306;-71
2024/01/22 02:12:37;;;;;;;68.43;40.33;;;-6.20;99.90;-4.90;97984.00;;;;5084879;28;20425;-71
2024/01/22 02:15:26;;;;;;;61.57;36.47;;;-6.10;99.90;-4.70;97980.00;;;;5088480;28;20444;-70
2024/01/22 02:18:15;;;;;;;65.55;38.25;;;-6.10;99.90;-4.70;97979.00;;;;5086886;28;20468;-71
2024/01/22 02:21:04;;;;;;;59.15;34.28;;;-6.00;99.90;-4.80;97976.00;;;;5088797;28;20288;-70
2024/01/22 02:23:54;;;;;;;68.97;40.07;;;-6.00;99.90;-4.80;97970.00;;;;5084362;28;20210;-70
2024/01/22 02:26:43;;;;;;;68.37;39.43;;;-6.00;99.90;-4.80;97968.00;;;;5087139;28;20444;-69
2024/01/22 02:29:32;;;;;;;69.77;40.83;;;-6.00;99.90;-4.80;97970.00;;;;5082911;28;20458;-70
2024/01/22 02:32:21;;;;;;;79.68;44.88;;;-5.90;99.90;-4.50;97968.00;;;;5081708;28;20438;-70
2024/01/22 02:35:10;;;;;;;73.80;42.83;;;-5.90;99.90;-4.50;97970.00;;;;5088709;28;20199;-70
2024/01/22 02:37:59;;;;;;;82.53;46.27;;;-5.90;99.90;-4.70;97958.00;;;;5086746;28;20206;-71
2024/01/22 02:40:49;;;;;;;84.30;44.37;;;-5.80;99.90;-4.50;97959.00;;;;5087995;28;20468;-70
2024/01/22 02:43:38;;;;;;;74.73;40.17;;;-6.30;99.90;-5.40;97947.00;;;;5085693;28;20433;-70
2024/01/22 02:46:27;;;;;;;81.25;40.72;;;-5.90;99.90;-5.60;97931.00;;;;5081785;28;20892;-70
2024/01/22 02:49:16;;;;;;;121.10;47.08;;;-6.10;99.90;-5.00;97940.00;;;;5086433;28;20215;-70
2024/01/22 02:52:05;;;;;;;123.68;54.63;;;-6.20;99.90;-4.70;97936.00;;;;5087340;28;20237;-71
2024/01/22 02:54:54;;;;;;;170.18;62.88;;;-6.10;99.90;-4.80;97930.00;;;;5085089;28;20199;-70
2024/01/22 02:57:44;;;;;;;57.57;35.87;;;-6.10;99.90;-5.60;97924.00;;;;5086416;28;20700;-70
2024/01/22 03:00:33;;;;;;;83.88;45.65;;;-6.20;99.90;-5.40;97912.00;;;;5083467;28;20476;-71
2024/01/22 03:03:22;;;;;;;52.83;33.43;;;-6.20;99.90;-5.40;97902.00;;;;5086706;28;20210;-70
2024/01/22 03:06:11;;;;;;;81.57;42.13;;;-6.30;99.90;-5.20;97913.00;;;;5086753;28;20437;-70
2024/01/22 03:09:00;;;;;;;97.15;48.33;;;-6.40;99.90;-4.80;97896.00;;;;5085107;28;20219;-71
2024/01/22 03:11:49;;;;;;;84.63;45.88;;;-6.40;99.90;-5.90;97887.00;;;;5088070;28;20199;-71
2024/01/22 03:14:39;;;;;;;163.35;58.75;;;-6.40;99.90;-6.20;97880.00;;;;5083229;28;20200;-69
2024/01/22 03:17:28;;;;;;;84.78;41.40;;;-6.60;99.90;-5.90;97881.00;;;;5081788;28;20232;-70
2024/01/22 03:20:17;;;;;;;89.65;40.28;;;-6.70;99.90;-5.70;97884.00;;;;5084628;28;20707;-71
2024/01/22 03:23:06;;;;;;;125.65;47.13;;;-6.70;99.90;-5.10;97887.00;;;;5086558;28;20203;-70
2024/01/22 03:25:55;;;;;;;112.45;46.95;;;-6.50;99.90;-5.00;97894.00;;;;5086870;28;20603;-71
2024/01/22 03:28:43;;;;;;;48.53;31.97;;;-6.50;99.90;-5.40;97888.00;;;;5087327;28;20238;-71
2024/01/22 03:31:37;;;;;;;55.17;34.53;;;-6.40;99.90;-6.10;97880.00;;;;5088403;28;20984;-70
2024/01/22 03:34:26;;;;;;;55.88;35.55;;;-6.50;99.90;-5.10;97899.00;;;;5081917;28;20256;-69
2024/01/22 03:37:15;;;;;;;61.55;37.63;;;-6.50;99.90;-4.80;97876.00;;;;5079787;28;20208;-70
2024/01/22 03:40:05;;;;;;;62.13;36.15;;;-6.40;99.90;-4.80;97872.00;;;;5085879;28;20623;-71
2024/01/22 03:42:54;;;;;;;77.25;44.22;;;-6.30;99.90;-4.70;97866.00;;;;5085553;28;20202;-70
2024/01/22 03:45:43;;;;;;;67.55;37.50;;;-6.20;99.90;-4.20;97880.00;;;;5086896;28;20204;-71
2024/01/22 03:48:33;;;;;;;75.75;41.35;;;-6.00;99.90;-5.50;97864.00;;;;5081452;28;20230;-69
2024/01/22 03:51:22;;;;;;;170.32;62.45;;;-6.10;99.90;-7.00;97830.00;;;;5080482;28;20227;-69
2024/01/22 03:54:10;;;;;;;20.73;16.20;;;-6.40;99.90;-5.80;97834.00;;;;5086420;28;20207;-70
2024/01/22 03:57:04;;;;;;;113.85;51.45;;;-6.60;99.90;-5.80;97840.00;;;;5085752;28;20428;-70
2024/01/22 03:59:53;;;;;;;162.02;63.55;;;-6.60;99.90;-5.60;97843.00;;;;5085548;28;20223;-70
2024/01/22 04:02:42;;;;;;;84.65;42.15;;;-6.50;99.90;-4.60;97847.00;;;;5082352;28;20202;-71
2024/01/22 04:05:32;;;;;;;157.98;61.10;;;-6.30;99.90;-5.20;97848.00;;;;5083663;28;20691;-70
2024/01/22 04:08:21;;;;;;;53.65;34.65;;;-6.30;99.90;-4.90;97845.00;;;;5079153;28;20672;-71
2024/01/22 04:11:10;;;;;;;54.27;34.23;;;-6.20;99.90;-5.50;97840.00;;;;5086038;28;20199;-70
2024/01/22 04:13:58;;;;;;;68.87;42.33;;;-6.30;99.90;-5.80;97843.00;;;;5084234;28;20444;-70
2024/01/22 04:16:47;;;;;;;62.85;37.03;;;-6.40;99.90;-6.60;97820.00;;;;5085783;28;20414;-69
2024/01/22 04:19:36;;;;;;;60.20;36.63;;;-6.60;99.90;-5.90;97844.00;;;;5082484;28;20234;-70
2024/01/22 04:22:26;;;;;;;59.85;35.78;;;-6.70;99.90;-6.00;97827.00;;;;5081137;28;20218;-68
2024/01/22 04:25:15;;;;;;;63.95;38.33;;;-6.70;99.90;-5.60;97840.00;;;;5084332;28;20210;-70
2024/01/22 04:28:05;;;;;;;70.43;41.03;;;-6.60;99.90;-5.40;97832.00;;;;5084779;28;20199;-70
2024/01/22 04:30:54;;;;;;;67.88;40.22;;;-6.50;99.90;-5.70;97818.00;;;;5083194;28;20203;-69
2024/01/22 04:33:43;;;;;;;69.50;38.40;;;-6.50;99.90;-5.30;97827.00;;;;5083155;28;20195;-70
2024/01/22 04:36:33;;;;;;;113.22;46.03;;;-6.50;99.90;-6.10;97812.00;;;;5086206;28;20199;-70
2024/01/22 04:39:23;;;;;;;84.75;42.83;;;-6.60;99.90;-5.90;97807.00;;;;5078736;28;20616;-69
2024/01/22 04:42:17;;;;;;;113.05;48.65;;;-6.70;99.90;-6.00;97806.00;;;;5085107;28;20221;-70
2024/01/22 04:45:07;;;;;;;93.07;46.08;;;-6.80;99.90;-5.90;97804.00;;;;5085368;28;20684;-70
2024/01/22 04:47:57;;;;;;;98.28;48.10;;;-6.80;99.90;-6.00;97802.00;;;;5085787;28;20211;-69
2024/01/22 04:50:46;;;;;;;60.13;36.25;;;-6.80;99.90;-5.50;97816.00;;;;5083296;28;20215;-69
2024/01/22 04:53:36;;;;;;;55.22;34.05;;;-6.80;99.90;-6.10;97809.00;;;;5085435;28;20200;-69
2024/01/22 04:56:26;;;;;;;72.38;40.28;;;-6.70;99.90;-5.50;97822.00;;;;5085440;28;20202;-71
2024/01/22 04:59:15;;;;;;;75.53;43.17;;;-6.60;99.90;-5.90;97806.00;;;;5087227;23;20234;-88
2024/01/22 05:02:04;;;;;;;66.40;39.70;;;-5.30;99.90;-6.00;97817.00;;;;5091748;28;20199;-86
2024/01/22 05:04:54;;;;;;;70.18;41.13;;;-6.50;99.90;-5.80;97806.00;;;;5074495;28;20204;-84
2024/01/22 05:07:44;;;;;;;63.50;36.35;;;-6.50;99.90;-5.20;97810.00;;;;5074626;28;20282;-83
2024/01/22 05:10:33;;;;;;;69.35;38.47;;;-6.00;99.90;-4.80;97824.00;;;;5078775;28;20210;-85
2024/01/22 05:13:23;;;;;;;81.18;43.35;;;-4.50;99.90;-4.60;97823.00;;;;5086470;28;20208;-86
2024/01/22 05:16:12;;;;;;;78.32;39.47;;;-6.20;99.90;-5.20;97814.00;;;;5079118;28;20325;-87
2024/01/22 05:19:01;;;;;;;64.03;38.27;;;-5.10;99.90;-5.50;97803.00;;;;5093489;28;20212;-84
2024/01/22 05:21:50;;;;;;;59.03;35.70;;;-6.30;99.90;-6.20;97802.00;;;;5094067;28;20421;-89
2024/01/22 05:24:39;;;;;;;61.78;36.75;;;-6.40;99.90;-5.80;97815.00;;;;5092798;28;20211;-87
2024/01/22 05:27:30;;;;;;;61.33;36.03;;;-6.70;99.90;-5.90;97816.00;;;;5103401;28;20195;-88
2024/01/22 05:30:20;;;;;;;70.80;39.33;;;-6.80;99.90;-5.40;97811.00;;;;5098440;28;20204;-88
2024/01/22 05:33:09;;;;;;;88.35;42.28;;;-6.70;99.90;-5.00;97824.00;;;;5101147;28;20211;-89
2024/01/22 05:35:59;;;;;;;69.15;43.13;;;-6.60;99.90;-5.10;97815.00;;;;5096225;28;20204;-88
2024/01/22 05:38:48;;;;;;;52.30;34.03;;;-6.50;99.90;-5.40;97823.00;;;;5096227;28;20229;-85
2024/01/22 05:41:37;;;;;;;53.42;34.47;;;-6.40;99.90;-5.90;97814.00;;;;5091787;28;20223;-89
2024/01/22 05:44:26;;;;;;;56.42;36.85;;;-5.00;99.90;-6.30;97822.00;;;;5080232;28;20195;-88
2024/01/22 05:47:16;;;;;;;55.17;34.42;;;-5.00;99.90;-5.90;97816.00;;;;5090154;28;20211;-85
2024/01/22 05:50:07;;;;;;;66.97;40.28;;;-6.80;99.90;-6.00;97826.00;;;;5075029;28;20479;-89
2024/01/22 05:52:56;;;;;;;63.03;39.88;;;-6.80;99.90;-6.60;97813.00;;;;5082921;28;20191;-90
2024/01/22 05:55:45;;;;;;;44.58;30.45;;;-6.90;99.90;-5.70;97814.00;;;;5089047;28;20203;-85
2024/01/22 05:58:33;;;;;;;60.45;38.05;;;-6.90;99.90;-6.00;97828.00;;;;5079389;28;20238;-83
2024/01/22 06:01:24;;;;;;;54.60;33.70;;;-6.90;99.90;-6.00;97810.00;;;;5082660;28;20231;-89
2024/01/22 06:04:15;;;;;;;59.53;35.67;;;-6.90;99.90;-5.50;97828.00;;;;5089519;28;20195;-83
2024/01/22 06:07:04;;;;;;;60.72;37.17;;;-6.80;99.90;-5.30;97818.00;;;;5081659;28;20203;-85
2024/01/22 06:09:53;;;;;;;74.57;42.97;;;-6.70;99.90;-6.00;97819.00;;;;5088369;28;20219;-84
2024/01/22 06:12:42;;;;;;;67.28;38.30;;;-6.60;99.90;-5.90;97807.00;;;;5076867;28;20199;-84
2024/01/22 06:15:31;;;;;;;105.93;52.92;;;-6.80;99.90;-5.50;97816.00;;;;5094921;28;20192;-86
2024/01/22 06:18:20;;;;;;;75.88;39.97;;;-5.30;99.90;-5.90;97812.00;;;;5085122;28;20230;-89
2024/01/22 06:21:10;;;;;;;105.10;48.95;;;-6.60;99.90;-5.70;97811.00;;;;5088331;28;20232;-85
2024/01/22 06:23:59;;;;;;;93.82;48.30;;;-6.80;99.90;-5.40;97802.00;;;;5076139;28;20214;-86
2024/01/22 06:26:48;;;;;;;84.82;43.50;;;-4.30;99.90;-4.90;97812.00;;;;5088789;28;20202;-84
2024/01/22 06:29:38;;;;;;;82.32;50.00;;;-6.60;99.90;-5.80;97794.00;;;;5087984;28;20223;-82
2024/01/22 06:32:27;;;;;;;62.17;35.13;;;-5.90;99.90;-6.40;97789.00;;;;5090945;28;20200;-84
2024/01/22 06:35:17;;;;;;;74.78;41.10;;;-6.70;99.90;-6.10;97799.00;;;;5084286;28;20203;-87
2024/01/22 06:38:08;;;;;;;66.72;37.80;;;-5.50;99.90;-5.50;97813.00;;;;5088595;28;20223;-86
2024/01/22 06:40:57;;;;;;;72.10;42.60;;;-4.60;99.90;-6.10;97785.00;;;;5085403;28;20226;-83
2024/01/22 06:43:46;;;;;;;54.05;33.17;;;-6.80;99.90;-6.20;97790.00;;;;5078453;28;20207;-88
2024/01/22 06:46:35;;;;;;;64.40;36.97;;;-6.50;99.90;-6.00;97782.00;;;;5075002;28;20206;-85
2024/01/22 06:49:24;;;;;;;77.55;39.83;;;-6.90;99.90;-5.80;97789.00;;;;5089002;28;20219;-87
2024/01/22 06:52:13;;;;;;;81.25;48.38;;;-6.90;99.90;-5.70;97792.00;;;;5083458;28;20200;-83
2024/01/22 06:55:05;;;;;;;180.13;100.47;;;-6.80;99.90;-5.60;97792.00;;;;5057457;28;20223;-84
2024/01/22 06:57:54;;;;;;;220.70;118.32;;;-6.70;99.90;-5.70;97775.00;;;;5032352;28;21863;-87
2024/01/22 07:00:43;;;;;;;194.55;94.10;;;-6.00;99.90;-5.70;97776.00;;;;5031055;28;22125;-89
2024/01/22 07:03:32;;;;;;;151.55;101.22;;;-6.60;99.90;-5.80;97781.00;;;;5032064;28;20208;-86
2024/01/22 07:06:21;;;;;;;131.90;69.88;;;-6.40;99.90;-6.00;97776.00;;;;5031088;28;22826;-89
2024/01/22 07:09:11;;;;;;;233.43;125.05;;;-5.90;99.90;-6.30;97770.00;;;;5030161;28;20223;-87
2024/01/22 07:12:03;;;;;;;180.98;110.70;;;-6.00;99.90;-6.70;97757.00;;;;5035551;28;20299;-89
2024/01/22 07:14:53;;;;;;;188.18;112.47;;;-4.80;99.90;-6.20;97759.00;;;;5033363;28;20204;-88
2024/01/22 07:17:42;;;;;;;138.60;78.05;;;-6.80;99.90;-6.10;97755.00;;;;5050680;28;20679;-87
2024/01/22 07:20:31;;;;;;;66.65;38.35;;;-6.70;99.90;-5.80;97774.00;;;;5080730;28;20222;-84
2024/01/22 07:23:20;;;;;;;59.10;33.53;;;-6.60;99.90;-6.20;97768.00;;;;5090665;28;20195;-84
2024/01/22 07:26:08;;;;;;;65.15;37.63;;;-6.60;99.90;-5.90;97759.00;;;;5073912;28;20212;-86
2024/01/22 07:28:59;;;;;;;159.23;106.22;;;-5.10;99.90;-5.70;97754.00;;;;5038784;28;20219;-87
2024/01/22 07:31:48;;;;;;;59.35;34.45;;;-4.60;99.90;-6.10;97761.00;;;;5071371;28;20199;-86
2024/01/22 07:34:36;;;;;;;74.10;40.92;;;-6.60;99.90;-6.40;97759.00;;;;5082584;28;20206;-88
2024/01/22 07:37:25;;;;;;;69.55;38.05;;;-5.50;99.90;-5.70;97776.00;;;;5083901;28;20206;-83
2024/01/22 07:40:15;;;;;;;78.15;40.17;;;-6.50;99.90;-5.60;97772.00;;;;5083258;28;20215;-89
2024/01/22 07:43:05;;;;;;;140.88;62.17;;;-6.00;99.90;-5.70;97771.00;;;;5079795;28;20191;-88
2024/01/22 07:45:56;;;;;;;68.72;38.25;;;-6.30;99.90;-5.70;97768.00;;;;5080983;28;20532;-89
2024/01/22 07:48:45;;;;;;;68.68;37.85;;;-4.50;99.90;-5.10;97767.00;;;;5085632;28;20268;-89
2024/01/22 07:51:35;;;;;;;69.07;38.70;;;-4.90;99.90;-5.30;97760.00;;;;5085439;28;20199;-85
2024/01/22 07:54:24;;;;;;;64.75;37.50;;;-6.10;99.90;-4.50;97769.00;;;;5083029;28;20207;-84
2024/01/22 07:57:13;;;;;;;75.13;41.13;;;-5.90;99.90;-4.40;97767.00;;;;5085546;28;20204;-83
2024/01/22 08:00:03;;;;;;;84.83;45.50;;;-5.80;99.90;-4.10;97766.00;;;;5086543;28;20430;-85
2024/01/22 08:02:53;;;;;;;77.00;41.40;;;-5.60;99.90;-4.00;97769.00;;;;5084653;28;20837;-85
2024/01/22 08:05:43;;;;;;;78.13;41.10;;;-4.20;99.90;-4.30;97766.00;;;;5082959;28;20434;-86
2024/01/22 08:08:32;;;;;;;79.77;42.13;;;-5.50;99.90;-4.50;97770.00;;;;5085060;28;20985;-88
2024/01/22 08:11:21;;;;;;;76.27;41.00;;;-5.40;99.90;-3.90;97759.00;;;;5088910;28;20451;-88
2024/01/22 08:14:10;;;;;;;79.90;42.53;;;-5.20;99.90;-3.60;97753.00;;;;5079192;28;20429;-89
2024/01/22 08:16:58;;;;;;;80.80;44.43;;;-4.60;99.90;-4.40;97747.00;;;;5081110;28;20425;-89
2024/01/22 08:19:49;;;;;;;69.57;36.87;;;-5.20;99.90;-4.00;97744.00;;;;5079669;28;20457;-86
2024/01/22 08:22:38;;;;;;;80.53;44.47;;;-3.80;99.90;-3.80;97755.00;;;;5077335;28;20477;-88
2024/01/22 08:25:28;;;;;;;86.83;43.07;;;-5.00;99.90;-3.50;97756.00;;;;5085503;28;20418;-86
2024/01/22 08:28:17;;;;;;;76.70;40.57;;;-4.10;99.90;-3.00;97749.00;;;;5087181;28;20484;-89
2024/01/22 08:31:06;;;;;;;87.10;45.43;;;-4.80;99.90;-1.90;97759.00;;;;5089117;28;20426;-90
2024/01/22 08:33:56;;;;;;;92.60;48.67;;;-3.50;99.90;-1.20;97766.00;;;;5088560;28;20442;-89
2024/01/22 08:36:47;;;;;;;90.80;45.23;;;-3.80;99.90;-1.00;97757.00;;;;5085366;28;20428;-89
2024/01/22 08:39:36;;;;;;;94.40;46.10;;;-3.70;99.90;-2.50;97748.00;;;;5088519;28;20457;-88
2024/01/22 08:42:25;;;;;;;92.63;46.07;;;-3.50;99.90;-3.00;97734.00;;;;5087206;28;20803;-86
2024/01/22 08:45:14;;;;;;;85.27;46.33;;;-3.50;99.90;-2.60;97738.00;;;;5085673;28;20965;-87
2024/01/22 08:48:04;;;;;;;110.90;56.67;;;-3.60;99.90;-2.80;97717.00;;;;5084823;28;20453;-87
2024/01/22 08:50:53;;;;;;;79.00;46.07;;;-3.60;99.90;-2.00;97716.00;;;;5080383;28;20439;-88
2024/01/22 08:53:43;;;;;;;82.00;43.30;;;-3.30;99.90;-1.70;97706.00;;;;5083748;28;20617;-88
2024/01/22 08:56:32;;;;;;;94.17;47.13;;;-3.30;99.90;-0.50;97711.00;;;;5084562;28;20433;-88
2024/01/22 08:59:21;;;;;;;100.33;48.57;;;-3.00;99.90;-0.50;97711.00;;;;5087472;28;20457;-88
2024/01/22 09:02:10;;;;;;;108.70;51.93;;;-2.70;99.90;0.10;97718.00;;;;5086419;28;20488;-88
2024/01/22 09:04:59;;;;;;;128.97;60.57;;;-1.90;99.90;0.40;97727.00;;;;5082939;28;20430;-87
2024/01/22 09:07:48;;;;;;;117.50;53.13;;;-2.00;99.90;1.10;97727.00;;;;5088655;28;20421;-87
2024/01/22 09:10:38;;;;;;;116.17;54.17;;;-1.70;99.90;1.50;97724.00;;;;5089573;28;20946;-85
2024/01/22 09:13:27;;;;;;;126.97;56.07;;;-1.40;99.90;1.60;97735.00;;;;5087314;28;20837;-87
2024/01/22 09:16:17;;;;;;;127.57;55.93;;;-1.10;99.90;1.80;97724.00;;;;5089552;28;20422;-88
2024/01/22 09:19:05;;;;;;;141.03;63.37;;;-0.80;99.80;1.60;97725.00;;;;5090741;28;20512;-87
2024/01/22 09:21:56;;;;;;;145.40;64.87;;;-0.60;98.80;1.70;97720.00;;;;5091146;28;20879;-87
2024/01/22 09:24:45;;;;;;;131.90;56.30;;;0.70;98.00;1.10;97707.00;;;;5082703;28;20430;-89
2024/01/22 09:27:36;;;;;;;131.97;58.83;;;-0.40;97.50;1.20;97708.00;;;;5088085;28;20444;-88
2024/01/22 09:30:25;;;;;;;138.53;60.13;;;-0.40;97.40;1.50;97705.00;;;;5084053;28;20425;-88
2024/01/22 09:33:13;;;;;;;135.23;56.17;;;-0.20;96.80;1.80;97703.00;;;;5088728;28;20954;-87
2024/01/22 09:36:04;;;;;;;156.40;66.57;;;-0.10;96.30;2.10;97693.00;;;;5088707;28;20941;-88
2024/01/22 09:38:53;;;;;;;151.90;65.37;;;0.00;96.00;2.60;97694.00;;;;5089776;28;21035;-88
2024/01/22 09:41:42;;;;;;;145.27;60.13;;;1.10;96.10;3.30;97685.00;;;;5082690;28;20445;-88
2024/01/22 09:44:33;;;;;;;156.50;65.97;;;1.40;96.00;3.20;97683.00;;;;5085937;28;20857;-87
2024/01/22 09:47:22;;;;;;;143.80;61.87;;;0.70;95.30;3.80;97673.00;;;;5090915;28;20422;-88
2024/01/22 09:50:12;;;;;;;155.30;66.77;;;0.90;95.30;3.90;97673.00;;;;5083674;28;20476;-88
2024/01/22 09:53:10;;;;;;;156.47;67.23;;;1.20;94.50;3.00;97676.00;;;;5088454;28;20440;-86
2024/01/22 09:55:59;;;;;;;164.77;72.20;;;1.30;93.50;2.80;97659.00;;;;5089837;28;20425;-90
2024/01/22 09:58:53;;;;;;;155.63;64.50;;;1.40;93.00;3.10;97652.00;;;;5087713;28;20461;-87
2024/01/22 10:01:44;;;;;;;161.70;66.87;;;1.40;92.50;2.90;97657.00;;;;5087811;28;20456;-88
2024/01/22 10:04:33;;;;;;;172.47;70.83;;;1.50;92.20;4.20;97661.00;;;;5084575;28;20930;-88
2024/01/22 10:07:23;;;;;;;173.87;69.40;;;1.60;92.60;3.60;97652.00;;;;5089937;28;20425;-88
2024/01/22 10:10:12;;;;;;;168.17;70.30;;;1.70;91.90;3.60;97642.00;;;;5088949;28;20434;-88
2024/01/22 10:13:04;;;;;;;182.73;80.90;;;1.80;91.40;3.90;97649.00;;;;5090947;28;20438;-87
2024/01/22 10:15:53;;;;;;;176.60;73.50;;;1.90;91.40;5.00;97639.00;;;;5088747;28;20441;-88
2024/01/22 10:18:57;;;;;;;181.20;72.80;;;2.10;91.60;5.10;97637.00;;;;5085721;28;20460;-88
2024/01/22 10:21:46;;;;;;;178.60;70.20;;;2.40;91.30;5.00;97632.00;;;;5084755;28;20941;-87
2024/01/22 10:24:35;;;;;;;195.80;74.93;;;2.50;90.20;4.60;97626.00;;;;5088796;28;20949;-87
2024/01/22 10:27:24;;;;;;;205.67;75.63;;;2.60;89.10;5.10;97633.00;;;;5089248;28;20945;-88
2024/01/22 10:30:17;;;;;;;216.63;77.30;;;2.70;88.50;4.20;97624.00;;;;5088602;28;20437;-88
2024/01/22 10:33:14;;;;;;;303.50;83.07;;;2.80;87.00;4.60;97620.00;;;;5088118;28;20526;-88
2024/01/22 10:36:16;;;;;;;231.13;83.97;;;2.80;86.60;5.40;97615.00;;;;5088173;28;20791;-87
2024/01/22 10:39:05;;;;;;;241.73;96.30;;;3.00;86.80;4.60;97601.00;;;;5088838;28;20456;-88
2024/01/22 10:41:54;;;;;;;213.10;82.10;;;3.10;84.90;5.40;97604.00;;;;5087750;28;20437;-88
2024/01/22 10:44:45;;;;;;;209.27;78.63;;;3.30;84.70;6.20;97620.00;;;;5088709;28;20793;-88
2024/01/22 10:47:35;;;;;;;228.50;85.07;;;3.60;85.30;5.90;97607.00;;;;5083396;28;20437;-88
2024/01/22 10:50:27;;;;;;;220.60;94.97;;;3.90;83.20;5.30;97609.00;;;;5087381;28;20440;-89
2024/01/22 10:53:18;;;;;;;180.20;78.53;;;3.90;81.40;5.80;97606.00;;;;5087791;28;20805;-88
2024/01/22 10:56:18;;;;;;;209.93;88.37;;;4.00;81.40;6.20;97612.00;;;;5087477;28;20977;-88
2024/01/22 10:59:18;;;;;;;237.20;90.70;;;4.10;80.80;6.40;97605.00;;;;5088283;28;20503;-88
2024/01/22 11:02:07;;;;;;;222.37;100.93;;;4.10;80.10;6.40;97605.00;;;;5089927;28;20433;-88
2024/01/22 11:05:07;;;;;;;184.93;84.37;;;4.10;80.30;5.80;97608.00;;;;5088689;28;20441;-87
2024/01/22 11:07:56;;;;;;;186.23;83.93;;;4.00;78.10;5.90;97609.00;;;;5083401;28;20458;-87
2024/01/22 11:10:48;;;;;;;183.20;76.47;;;3.90;78.40;6.00;97605.00;;;;5089337;28;20433;-88
2024/01/22 11:13:37;;;;;;;196.90;81.20;;;3.90;78.40;6.20;97596.00;;;;5078432;28;20210;-87
2024/01/22 11:16:27;;;;;;;204.43;80.17;;;3.90;78.20;6.60;97588.00;;;;5081889;28;20195;-87
2024/01/22 11:19:22;;;;;;;220.53;82.33;;;4.00;79.20;6.50;97588.00;;;;5081532;28;20465;-88
2024/01/22 11:22:21;;;;;;;241.10;87.60;;;4.10;79.40;6.40;97582.00;;;;5077898;28;20499;-87
2024/01/22 11:25:13;;;;;;;229.93;84.97;;;4.20;78.20;6.40;97568.00;;;;5084321;28;20828;-87
2024/01/22 11:28:06;;;;;;;271.77;97.27;;;4.20;77.30;6.10;97564.00;;;;5082759;28;20453;-87
2024/01/22 11:30:55;;;;;;;246.63;83.40;;;4.30;76.70;5.90;97561.00;;;;5076395;28;20673;-88
2024/01/22 11:33:51;;;;;;;239.53;84.33;;;4.40;75.50;6.20;97563.00;;;;5081394;28;20207;-88
2024/01/22 11:36:55;;;;;;;285.27;86.23;;;4.40;74.90;5.80;97555.00;;;;5086905;28;20444;-88
2024/01/22 11:39:46;;;;;;;315.17;91.40;;;4.40;74.10;5.60;97551.00;;;;5083770;28;20891;-88
2024/01/22 11:42:35;;;;;;;270.47;88.50;;;4.30;74.70;6.30;97555.00;;;;5076115;28;20448;-88
2024/01/22 11:45:26;;;;;;;311.13;88.10;;;4.40;75.30;7.30;97538.00;;;;5087342;28;20422;-87
2024/01/22 11:48:19;;;;;;;311.13;84.50;;;4.70;75.70;7.60;97545.00;;;;5078807;28;20472;-87
2024/01/22 11:51:08;;;;;;;323.53;103.97;;;5.10;73.60;7.70;97533.00;;;;5072402;28;20438;-88
2024/01/22 11:53:59;;;;;;;319.27;104.93;;;5.40;73.40;8.90;97523.00;;;;5084464;28;20452;-87
2024/01/22 11:56:48;;;;;;;243.03;89.07;;;5.80;72.50;9.10;97510.00;;;;5076116;28;20203;-87
2024/01/22 11:59:37;;;;;;;346.83;91.73;;;6.40;71.90;8.80;97525.00;;;;5083570;28;20235;-88
2024/01/22 12:02:28;;;;;;;342.20;116.17;;;6.90;69.40;9.40;97523.00;;;;5088116;28;20199;-87
2024/01/22 12:05:18;;;;;;;253.13;100.27;;;7.30;67.70;8.00;97514.00;;;;5081654;28;20203;-88
2024/01/22 12:08:13;;;;;;;252.53;103.20;;;7.30;65.00;7.50;97514.00;;;;5084576;28;20333;-88
2024/01/22 12:11:09;;;;;;;260.03;107.67;;;7.00;65.00;8.30;97526.00;;;;5085977;28;20207;-88
2024/01/22 12:13:58;;;;;;;258.23;106.77;;;6.80;65.30;8.10;97517.00;;;;5074133;28;20207;-87
2024/01/22 12:16:48;;;;;;;239.80;98.87;;;6.50;66.20;7.60;97515.00;;;;5078112;28;20286;-87
2024/01/22 12:19:38;;;;;;;269.83;99.77;;;6.20;66.20;7.90;97509.00;;;;5079274;28;20215;-87